Time;durP1;ratioP1;P1;durP2;ratioP2;P2;SDS_P1;SDS_P2;PMS_P1;PMS_P2;Temp;Humidity;BMP_temperature;BMP_pressure;BME280_temperature;BME280_humidity;BME280_pressure;Samples;Min_cycle;Max_cycle;Signal;HPM_P1;HPM_P2
2021/09/03 00:00:17;;;;;;;14.83;11.77;;;14.30;99.90;;;;;;5015663;28;20200;-78
2021/09/03 00:02:43;;;;;;;14.13;11.00;;;14.30;99.90;;;;;;5015363;28;20183;-78
2021/09/03 00:05:10;;;;;;;16.83;11.70;;;14.30;99.90;;;;;;4999263;28;20232;-78
2021/09/03 00:07:36;;;;;;;15.20;11.43;;;14.20;99.90;;;;;;5015389;28;20199;-78
2021/09/03 00:10:06;;;;;;;17.53;11.67;;;14.20;99.90;;;;;;5016391;28;20207;-78
2021/09/03 00:12:32;;;;;;;18.40;11.97;;;14.20;99.90;;;;;;5016926;28;20215;-78
2021/09/03 00:14:57;;;;;;;16.50;11.80;;;14.20;99.90;;;;;;5015802;28;20175;-78
2021/09/03 00:17:23;;;;;;;16.57;11.43;;;14.20;99.90;;;;;;5016308;28;20215;-78
2021/09/03 00:19:48;;;;;;;14.00;11.57;;;14.10;99.90;;;;;;4998857;28;20290;-78
2021/09/03 00:22:14;;;;;;;17.70;12.30;;;14.10;99.90;;;;;;5016235;28;20520;-78
2021/09/03 00:24:39;;;;;;;14.70;11.77;;;14.10;99.90;;;;;;5015836;28;20175;-78
2021/09/03 00:27:05;;;;;;;18.93;12.07;;;14.10;99.90;;;;;;4999678;28;20184;-78
2021/09/03 00:29:30;;;;;;;15.57;11.67;;;14.10;99.90;;;;;;5016631;28;20565;-78
2021/09/03 00:31:56;;;;;;;18.53;13.00;;;14.20;99.90;;;;;;4998648;28;20574;-78
2021/09/03 00:34:21;;;;;;;16.30;12.23;;;14.10;99.90;;;;;;5015491;28;20188;-78
2021/09/03 00:36:47;;;;;;;18.50;12.50;;;14.10;99.90;;;;;;4999160;28;20211;-78
2021/09/03 00:39:13;;;;;;;18.83;12.20;;;14.10;99.90;;;;;;5031893;28;20234;-78
2021/09/03 00:41:38;;;;;;;19.50;12.63;;;14.00;99.90;;;;;;5001339;28;20230;-78
2021/09/03 00:44:04;;;;;;;19.73;12.63;;;14.00;99.90;;;;;;5003012;28;20182;-78
2021/09/03 00:46:29;;;;;;;17.93;12.37;;;14.10;99.90;;;;;;5002130;28;20183;-78
2021/09/03 00:48:56;;;;;;;16.33;12.13;;;14.00;99.90;;;;;;5018825;28;20183;-78
2021/09/03 00:51:22;;;;;;;16.60;12.63;;;14.10;99.90;;;;;;5003131;28;20204;-78
2021/09/03 00:53:48;;;;;;;17.27;12.33;;;14.00;99.90;;;;;;5019468;28;20180;-78
2021/09/03 00:56:14;;;;;;;18.00;12.90;;;14.00;99.90;;;;;;5002685;28;20207;-78
2021/09/03 00:58:39;;;;;;;20.37;12.80;;;14.00;99.90;;;;;;5018767;28;20229;-78
2021/09/03 01:01:05;;;;;;;16.63;12.43;;;14.00;99.90;;;;;;5019254;28;20192;-78
2021/09/03 01:03:30;;;;;;;17.33;12.70;;;14.00;99.90;;;;;;5018559;28;20183;-78
2021/09/03 01:05:58;;;;;;;17.87;12.60;;;13.90;99.90;;;;;;5018607;28;20175;-78
2021/09/03 01:08:24;;;;;;;20.70;13.53;;;13.90;99.90;;;;;;5019360;28;20171;-78
2021/09/03 01:10:50;;;;;;;15.90;12.33;;;13.90;99.90;;;;;;5002048;28;20234;-78
2021/09/03 01:13:15;;;;;;;17.47;13.23;;;13.90;99.90;;;;;;5019167;28;20322;-79
2021/09/03 01:15:41;;;;;;;17.17;13.53;;;13.80;99.90;;;;;;5019845;28;20199;-78
2021/09/03 01:18:06;;;;;;;18.20;13.20;;;13.90;99.90;;;;;;5018632;28;20180;-78
2021/09/03 01:20:32;;;;;;;17.53;12.60;;;13.80;99.90;;;;;;5001978;28;20195;-78
2021/09/03 01:22:57;;;;;;;18.27;12.67;;;13.80;99.90;;;;;;5002045;28;20182;-78
2021/09/03 01:25:23;;;;;;;18.37;12.90;;;13.80;99.90;;;;;;5018546;28;20663;-78
2021/09/03 01:27:48;;;;;;;17.93;13.27;;;13.80;99.90;;;;;;5018106;28;20643;-78
2021/09/03 01:30:15;;;;;;;17.23;12.97;;;13.80;99.90;;;;;;5001759;28;20612;-78
2021/09/03 01:32:41;;;;;;;18.23;13.30;;;13.80;99.90;;;;;;5018350;28;20287;-78
2021/09/03 01:35:07;;;;;;;18.47;13.07;;;13.70;99.90;;;;;;5018324;28;20659;-78
2021/09/03 01:37:32;;;;;;;16.83;12.63;;;13.70;99.90;;;;;;5017846;28;20176;-78
2021/09/03 01:39:58;;;;;;;17.67;13.07;;;13.70;99.90;;;;;;5018173;28;20337;-78
2021/09/03 01:42:23;;;;;;;19.93;14.30;;;13.60;99.90;;;;;;5001980;28;20172;-78
2021/09/03 01:44:49;;;;;;;18.10;12.83;;;13.60;99.90;;;;;;5001332;28;20657;-78
2021/09/03 01:47:14;;;;;;;17.60;13.07;;;13.60;99.90;;;;;;5034072;28;20191;-78
2021/09/03 01:49:40;;;;;;;18.93;13.83;;;13.60;99.90;;;;;;5021376;28;20196;-78
2021/09/03 01:52:06;;;;;;;16.00;12.37;;;13.50;99.90;;;;;;5019331;28;20274;-78
2021/09/03 01:54:31;;;;;;;18.10;13.17;;;13.50;99.90;;;;;;5019117;28;20235;-78
2021/09/03 01:56:57;;;;;;;18.97;13.03;;;13.50;99.90;;;;;;5018390;28;20230;-78
2021/09/03 01:59:22;;;;;;;19.37;13.97;;;13.50;99.90;;;;;;5018255;28;20199;-78
2021/09/03 02:01:48;;;;;;;18.47;13.20;;;13.40;99.90;;;;;;5018446;28;20184;-78
2021/09/03 02:04:13;;;;;;;19.90;13.70;;;13.40;99.90;;;;;;5002406;28;20662;-78
2021/09/03 02:06:39;;;;;;;16.47;12.33;;;13.40;99.90;;;;;;5001509;28;20651;-78
2021/09/03 02:09:04;;;;;;;19.57;13.83;;;13.40;99.90;;;;;;5001597;28;20789;-78
2021/09/03 02:11:37;;;;;;;17.77;13.67;;;13.40;99.90;;;;;;5053009;22;20230;-79
2021/09/03 02:15:22;;;;;;;19.03;13.33;;;13.40;99.90;;;;;;5041202;28;20202;-79
2021/09/03 02:22:27;;;;;;;19.87;13.13;;;13.30;99.90;;;;;;4968516;28;20231;-79
2021/09/03 02:25:46;;;;;;;20.60;13.77;;;13.30;99.90;;;;;;4962578;28;20204;-79
2021/09/03 02:28:54;;;;;;;20.20;14.70;;;13.20;99.90;;;;;;4969463;28;20197;-79
2021/09/03 02:32:23;;;;;;;21.63;13.87;;;13.20;99.90;;;;;;4902558;29;20196;-79
2021/09/03 02:35:54;;;;;;;19.13;14.53;;;13.20;99.90;;;;;;4973665;28;20180;-79
2021/09/03 02:39:05;;;;;;;17.97;13.23;;;13.10;99.90;;;;;;5004525;28;20194;-79
2021/09/03 02:41:49;;;;;;;20.87;14.03;;;13.10;99.90;;;;;;5046288;28;20218;-79
2021/09/03 02:44:37;;;;;;;19.97;13.73;;;13.10;99.90;;;;;;5033284;28;20182;-79
2021/09/03 02:47:03;;;;;;;17.03;13.47;;;13.00;99.90;;;;;;5063849;28;20183;-79
2021/09/03 02:49:29;;;;;;;18.37;14.03;;;13.00;99.90;;;;;;5030874;28;20206;-79
2021/09/03 02:51:54;;;;;;;20.37;14.23;;;13.10;99.90;;;;;;5030712;28;20258;-79
2021/09/03 02:54:20;;;;;;;19.63;14.00;;;13.00;99.90;;;;;;5030440;28;20182;-79
2021/09/03 02:56:45;;;;;;;18.47;14.00;;;13.00;99.90;;;;;;5030850;28;20254;-79
2021/09/03 02:59:11;;;;;;;18.27;13.80;;;13.00;99.90;;;;;;5012109;28;20179;-79
2021/09/03 03:01:36;;;;;;;17.20;13.57;;;13.10;99.90;;;;;;5014268;28;20255;-79
2021/09/03 03:04:02;;;;;;;19.40;13.73;;;13.00;99.90;;;;;;5012383;28;20269;-79
2021/09/03 03:06:28;;;;;;;20.87;13.97;;;13.00;99.90;;;;;;5015279;28;20191;-79
2021/09/03 03:08:53;;;;;;;17.60;13.00;;;13.00;99.90;;;;;;5031306;28;20179;-79
2021/09/03 03:11:19;;;;;;;20.00;14.57;;;13.00;99.90;;;;;;5015014;28;20286;-79
2021/09/03 03:13:48;;;;;;;21.80;15.50;;;13.00;99.90;;;;;;5031705;28;20179;-79
2021/09/03 03:16:16;;;;;;;20.47;14.80;;;12.90;99.90;;;;;;5031616;28;20207;-79
2021/09/03 03:18:42;;;;;;;19.37;14.37;;;12.80;99.90;;;;;;5015219;28;20183;-79
2021/09/03 03:21:08;;;;;;;19.17;14.13;;;12.80;99.90;;;;;;5014978;28;20282;-79
2021/09/03 03:23:33;;;;;;;19.37;14.30;;;12.80;99.90;;;;;;5014151;28;20171;-79
2021/09/03 03:25:59;;;;;;;19.20;13.53;;;12.80;99.90;;;;;;5047944;28;20179;-79
2021/09/03 03:28:25;;;;;;;21.40;14.70;;;12.80;99.90;;;;;;5014850;28;20597;-79
2021/09/03 03:30:50;;;;;;;18.17;13.47;;;12.70;99.90;;;;;;5014793;28;20266;-79
2021/09/03 03:33:16;;;;;;;18.90;14.30;;;12.70;99.90;;;;;;5031397;28;20194;-79
2021/09/03 03:35:41;;;;;;;17.57;13.13;;;12.80;99.90;;;;;;5041767;28;20216;-79
2021/09/03 03:38:07;;;;;;;17.90;13.57;;;12.70;99.90;;;;;;5033660;28;20174;-79
2021/09/03 03:40:32;;;;;;;18.63;13.83;;;12.70;99.90;;;;;;5050307;28;20633;-79
2021/09/03 03:42:58;;;;;;;19.07;14.03;;;12.80;99.90;;;;;;5067516;28;20181;-79
2021/09/03 03:45:24;;;;;;;21.23;14.20;;;12.70;99.90;;;;;;5051452;28;20177;-79
2021/09/03 03:47:50;;;;;;;18.53;13.47;;;12.70;99.90;;;;;;5067937;28;20173;-79
2021/09/03 03:50:15;;;;;;;19.90;14.10;;;12.70;99.90;;;;;;5048774;28;20194;-79
2021/09/03 03:52:41;;;;;;;18.50;14.40;;;12.70;99.90;;;;;;5050678;28;20189;-79
2021/09/03 03:55:07;;;;;;;17.60;13.63;;;12.60;99.90;;;;;;5050867;28;20182;-79
2021/09/03 03:57:32;;;;;;;18.13;13.77;;;12.60;99.90;;;;;;5034947;28;20278;-79
2021/09/03 03:59:58;;;;;;;18.20;13.67;;;12.70;99.90;;;;;;5044921;28;20669;-79
2021/09/03 04:02:23;;;;;;;18.70;13.63;;;12.70;99.90;;;;;;5051947;28;20174;-79
2021/09/03 04:04:49;;;;;;;19.57;13.40;;;12.70;99.90;;;;;;5051091;28;20201;-79
2021/09/03 04:07:14;;;;;;;19.90;14.07;;;12.70;99.90;;;;;;5050804;28;20174;-79
2021/09/03 04:09:40;;;;;;;20.10;13.63;;;12.70;99.90;;;;;;5050832;28;20181;-79
2021/09/03 04:12:08;;;;;;;21.17;14.60;;;12.70;99.90;;;;;;5067305;28;20189;-79
2021/09/03 04:14:33;;;;;;;22.93;14.97;;;12.60;99.90;;;;;;5050496;28;20189;-79
2021/09/03 04:16:59;;;;;;;18.80;14.03;;;12.70;99.90;;;;;;5041674;28;20288;-79
2021/09/03 04:19:25;;;;;;;17.60;13.80;;;12.70;99.90;;;;;;5045417;28;20174;-79
2021/09/03 04:21:50;;;;;;;19.03;13.93;;;12.70;99.90;;;;;;5045622;28;20194;-79
2021/09/03 04:24:16;;;;;;;18.20;13.67;;;12.60;99.90;;;;;;5039936;28;20174;-80
2021/09/03 04:26:43;;;;;;;18.00;13.83;;;12.60;99.90;;;;;;5039513;28;20257;-83
2021/09/03 04:29:08;;;;;;;18.63;14.03;;;12.60;99.90;;;;;;5039005;28;20554;-79
2021/09/03 04:31:34;;;;;;;18.97;13.77;;;12.60;99.90;;;;;;5038204;28;20209;-80
2021/09/03 04:33:59;;;;;;;19.37;14.53;;;12.60;99.90;;;;;;5039647;28;20221;-79
2021/09/03 04:36:25;;;;;;;19.37;14.30;;;12.60;99.90;;;;;;5040999;28;20202;-80
2021/09/03 04:38:51;;;;;;;18.93;13.43;;;12.60;99.90;;;;;;5038724;28;20174;-79
2021/09/03 04:41:16;;;;;;;19.67;14.50;;;12.60;99.90;;;;;;5037672;28;20187;-79
2021/09/03 04:43:42;;;;;;;17.83;13.07;;;12.60;99.90;;;;;;5034068;28;20564;-78
2021/09/03 04:46:07;;;;;;;19.37;14.40;;;12.60;99.90;;;;;;5017336;28;20202;-81
2021/09/03 04:48:33;;;;;;;19.17;13.93;;;12.60;99.90;;;;;;5050719;28;20594;-80
2021/09/03 04:50:58;;;;;;;17.30;13.20;;;12.60;99.90;;;;;;5034224;28;20194;-83
2021/09/03 04:53:24;;;;;;;15.33;12.93;;;12.50;99.90;;;;;;5017768;28;20269;-80
2021/09/03 04:55:52;;;;;;;19.20;13.97;;;12.60;99.90;;;;;;5034457;28;20222;-79
2021/09/03 04:58:18;;;;;;;21.80;13.77;;;12.60;99.90;;;;;;5034326;28;20170;-79
2021/09/03 05:00:43;;;;;;;19.53;14.10;;;12.60;99.90;;;;;;5033586;28;20205;-80
2021/09/03 05:03:09;;;;;;;16.97;13.73;;;12.60;99.90;;;;;;5050631;28;20625;-79
2021/09/03 05:05:34;;;;;;;19.37;14.07;;;12.60;99.90;;;;;;5033244;28;20239;-80
2021/09/03 05:08:00;;;;;;;19.90;13.73;;;12.60;99.90;;;;;;5017700;28;20179;-80
2021/09/03 05:10:25;;;;;;;16.80;13.67;;;12.60;99.90;;;;;;5013624;28;20199;-79
2021/09/03 05:12:51;;;;;;;18.83;13.47;;;12.60;99.90;;;;;;5030351;28;20182;-79
2021/09/03 05:15:17;;;;;;;16.40;12.67;;;12.60;99.90;;;;;;5014095;28;20178;-79
2021/09/03 05:17:45;;;;;;;18.63;13.50;;;12.60;99.90;;;;;;5013641;28;20175;-79
2021/09/03 05:20:11;;;;;;;20.33;13.83;;;12.70;99.90;;;;;;5014188;28;20254;-79
2021/09/03 05:22:36;;;;;;;15.77;13.37;;;12.60;99.90;;;;;;5014130;28;20190;-79
2021/09/03 05:25:03;;;;;;;18.37;13.00;;;12.70;99.90;;;;;;5028011;28;20272;-80
2021/09/03 05:27:28;;;;;;;22.03;14.97;;;12.70;99.90;;;;;;5037640;28;20251;-81
2021/09/03 05:29:54;;;;;;;17.57;14.20;;;12.70;99.90;;;;;;5032111;28;20192;-82
2021/09/03 05:32:19;;;;;;;19.57;15.00;;;12.80;99.90;;;;;;5001146;28;20203;-79
2021/09/03 05:34:45;;;;;;;23.60;15.57;;;12.80;99.90;;;;;;4998763;28;20182;-78
2021/09/03 05:37:11;;;;;;;20.73;15.10;;;12.90;99.90;;;;;;4997609;28;20203;-79
2021/09/03 05:39:36;;;;;;;23.80;16.40;;;13.00;99.90;;;;;;4997619;28;20176;-79
2021/09/03 05:42:02;;;;;;;19.00;14.97;;;13.00;99.90;;;;;;5014105;28;20759;-80
2021/09/03 05:44:28;;;;;;;21.57;15.33;;;13.10;99.90;;;;;;4997851;28;20198;-79
2021/09/03 05:46:53;;;;;;;20.33;15.23;;;13.20;99.90;;;;;;5013917;28;20262;-78
2021/09/03 05:49:19;;;;;;;23.30;15.37;;;13.30;99.90;;;;;;5013584;28;20175;-78
2021/09/03 05:51:44;;;;;;;21.17;15.13;;;13.50;99.90;;;;;;4997873;28;20227;-79
2021/09/03 05:54:10;;;;;;;21.93;15.90;;;13.50;99.90;;;;;;5013644;28;20188;-79
2021/09/03 05:56:36;;;;;;;20.03;14.83;;;13.60;99.90;;;;;;4997189;28;20199;-78
2021/09/03 05:59:03;;;;;;;18.73;14.43;;;13.80;99.90;;;;;;4997092;28;20184;-79
2021/09/03 06:01:28;;;;;;;18.13;14.73;;;14.10;99.90;;;;;;4996934;28;20202;-79
2021/09/03 06:03:54;;;;;;;15.37;12.70;;;14.60;99.90;;;;;;4997019;28;20172;-78
2021/09/03 06:06:19;;;;;;;16.33;12.97;;;15.10;99.90;;;;;;5013439;28;20183;-77
2021/09/03 06:09:00;;;;;;;18.63;13.73;;;15.40;99.90;;;;;;5010145;28;20184;-81
2021/09/03 06:11:26;;;;;;;17.80;13.73;;;15.50;99.90;;;;;;5019323;28;20207;-80
2021/09/03 06:13:52;;;;;;;17.90;12.73;;;15.80;99.90;;;;;;4997984;28;20551;-80
2021/09/03 06:16:18;;;;;;;15.77;13.10;;;16.00;99.90;;;;;;5013967;28;20214;-80
2021/09/03 06:18:43;;;;;;;17.37;12.57;;;16.00;99.90;;;;;;5013670;28;20179;-80
2021/09/03 06:21:09;;;;;;;15.60;12.33;;;16.10;99.90;;;;;;4998128;28;20196;-83
2021/09/03 06:23:34;;;;;;;13.60;11.93;;;16.20;99.90;;;;;;4999628;28;20179;-83
2021/09/03 06:26:00;;;;;;;16.80;12.57;;;16.30;99.90;;;;;;4999990;28;20180;-82
2021/09/03 06:28:26;;;;;;;17.67;13.13;;;16.60;99.90;;;;;;4998423;28;20249;-79
2021/09/03 06:30:51;;;;;;;17.37;13.03;;;17.00;99.90;;;;;;5004581;28;20198;-79
2021/09/03 06:33:17;;;;;;;18.67;13.07;;;17.70;99.90;;;;;;5038393;28;20194;-79
2021/09/03 06:35:42;;;;;;;15.67;11.40;;;18.70;99.90;;;;;;5016960;28;20214;-77
2021/09/03 06:38:08;;;;;;;14.80;11.20;;;19.60;99.90;;;;;;5020105;28;20187;-78
2021/09/03 06:40:34;;;;;;;14.60;10.93;;;20.20;99.90;;;;;;5036283;28;20206;-80
2021/09/03 06:42:59;;;;;;;13.97;10.63;;;20.90;99.90;;;;;;5020702;28;20183;-80
2021/09/03 06:45:25;;;;;;;14.60;10.30;;;21.10;99.90;;;;;;5020835;28;20178;-80
2021/09/03 06:47:51;;;;;;;13.73;10.50;;;21.40;99.90;;;;;;5020079;28;20320;-81
2021/09/03 06:50:18;;;;;;;14.40;9.60;;;21.60;99.90;;;;;;5035785;28;20344;-81
2021/09/03 06:52:43;;;;;;;14.17;9.47;;;22.20;99.90;;;;;;5020519;28;20630;-81
2021/09/03 06:55:10;;;;;;;12.13;9.10;;;22.80;99.90;;;;;;5002568;28;20269;-81
2021/09/03 06:59:27;;;;;;;11.20;8.97;;;23.40;99.90;;;;;;5094349;27;20551;-81
2021/09/03 07:01:53;;;;;;;18.87;13.83;;;23.90;99.90;;;;;;5091243;28;20205;-81
2021/09/03 07:04:19;;;;;;;11.40;9.73;;;24.20;99.90;;;;;;5107070;28;20173;-81
2021/09/03 07:06:45;;;;;;;11.87;8.97;;;24.60;99.90;;;;;;5090657;28;20603;-81
2021/09/03 07:09:10;;;;;;;12.37;9.57;;;24.60;99.90;;;;;;5091677;28;20180;-81
2021/09/03 07:11:36;;;;;;;11.27;8.75;;;24.60;99.90;;;;;;5046481;28;20215;-81
2021/09/03 07:14:02;;;;;;;11.38;8.68;;;24.60;99.90;;;;;;5060932;28;20200;-81
2021/09/03 07:16:28;;;;;;;13.48;9.27;;;23.80;99.90;;;;;;5068629;28;20181;-81
2021/09/03 07:18:53;;;;;;;12.63;9.47;;;23.10;99.90;;;;;;5040279;28;20197;-81
2021/09/03 07:21:19;;;;;;;15.15;9.93;;;22.50;99.90;;;;;;5040268;28;20687;-81
2021/09/03 07:23:45;;;;;;;12.88;9.25;;;21.70;99.90;;;;;;5040909;28;20197;-80
2021/09/03 07:26:10;;;;;;;13.03;9.30;;;21.00;99.90;;;;;;5058873;28;20177;-81
2021/09/03 07:28:36;;;;;;;14.00;10.13;;;20.60;99.90;;;;;;5060424;28;20254;-81
2021/09/03 07:31:01;;;;;;;12.93;9.43;;;20.50;99.90;;;;;;5059312;28;20201;-81
2021/09/03 07:33:27;;;;;;;13.00;9.80;;;20.30;99.90;;;;;;5049779;28;20174;-81
2021/09/03 07:35:53;;;;;;;13.33;10.30;;;20.10;99.90;;;;;;5055961;28;20189;-80
2021/09/03 07:38:18;;;;;;;11.77;9.83;;;20.00;99.90;;;;;;5056505;28;20243;-80
2021/09/03 07:40:44;;;;;;;12.47;8.93;;;19.90;99.90;;;;;;5056531;28;20684;-81
2021/09/03 07:43:10;;;;;;;12.80;9.30;;;19.90;99.90;;;;;;5074462;28;20181;-81
2021/09/03 07:45:37;;;;;;;11.43;9.47;;;20.00;99.90;;;;;;5059945;28;20173;-81
2021/09/03 07:48:03;;;;;;;11.00;9.10;;;20.10;99.90;;;;;;5076134;28;20165;-81
2021/09/03 07:50:28;;;;;;;10.70;8.93;;;20.10;99.90;;;;;;5092206;28;20227;-81
2021/09/03 07:52:54;;;;;;;14.77;9.60;;;20.10;99.90;;;;;;5059519;28;20183;-81
2021/09/03 07:55:19;;;;;;;12.87;9.03;;;20.20;99.90;;;;;;5059914;28;20212;-80
2021/09/03 07:57:45;;;;;;;13.33;8.87;;;20.40;99.90;;;;;;5058584;28;20290;-80
2021/09/03 08:00:11;;;;;;;13.30;8.97;;;20.50;99.90;;;;;;5059839;28;20729;-81
2021/09/03 08:02:36;;;;;;;15.63;9.43;;;20.70;99.90;;;;;;5060074;28;20180;-81
2021/09/03 08:05:04;;;;;;;15.03;10.63;;;20.80;99.90;;;;;;5060181;28;20174;-80
2021/09/03 08:07:30;;;;;;;13.70;9.33;;;21.00;99.90;;;;;;5076296;28;20188;-80
2021/09/03 08:12:24;;;;;;;13.23;8.70;;;21.10;99.90;;;;;;5040018;28;20222;-81
2021/09/03 08:14:50;;;;;;;11.77;8.73;;;21.10;99.90;;;;;;5008137;28;20523;-81
2021/09/03 08:17:16;;;;;;;12.63;8.27;;;21.20;99.90;;;;;;5025856;28;20182;-81
2021/09/03 08:19:42;;;;;;;14.93;8.50;;;21.40;99.90;;;;;;5032362;28;20263;-81
2021/09/03 08:22:07;;;;;;;11.57;8.07;;;21.50;99.90;;;;;;4995175;28;20192;-81
2021/09/03 08:24:33;;;;;;;10.30;8.43;;;21.70;99.90;;;;;;4987148;28;20365;-81
2021/09/03 08:26:59;;;;;;;10.03;7.87;;;21.80;99.90;;;;;;4978168;28;20188;-81
2021/09/03 08:29:24;;;;;;;10.17;8.27;;;21.80;99.90;;;;;;5003471;28;20552;-81
2021/09/03 08:31:50;;;;;;;11.53;8.47;;;21.90;99.90;;;;;;5003687;28;20290;-81
2021/09/03 08:34:16;;;;;;;10.63;8.30;;;21.90;99.90;;;;;;4999295;28;20207;-81
2021/09/03 08:36:42;;;;;;;12.33;8.40;;;21.90;99.90;;;;;;5022065;28;20186;-82
2021/09/03 08:39:07;;;;;;;11.43;8.47;;;22.00;99.90;;;;;;5018236;28;20228;-82
2021/09/03 08:41:33;;;;;;;11.30;8.60;;;22.10;99.90;;;;;;5006847;28;20221;-82
2021/09/03 08:43:59;;;;;;;9.77;7.47;;;22.20;99.90;;;;;;5011822;28;20630;-82
2021/09/03 08:46:26;;;;;;;11.67;8.17;;;22.10;99.90;;;;;;5026592;28;20217;-82
2021/09/03 08:48:51;;;;;;;11.20;8.67;;;21.90;99.90;;;;;;5017237;28;20247;-82
2021/09/03 08:51:17;;;;;;;12.53;8.90;;;21.90;99.90;;;;;;5004886;28;20745;-82
2021/09/03 08:53:43;;;;;;;13.50;8.37;;;22.10;99.90;;;;;;5031935;28;20183;-82
2021/09/03 08:56:08;;;;;;;11.50;8.87;;;22.10;99.90;;;;;;5013135;28;20273;-82
2021/09/03 08:58:34;;;;;;;14.13;8.17;;;22.10;99.90;;;;;;5022833;28;20213;-82
2021/09/03 09:01:10;;;;;;;11.93;7.87;;;22.20;99.90;;;;;;5024472;28;20191;-82
2021/09/03 09:03:40;;;;;;;12.10;9.13;;;22.20;99.90;;;;;;5024089;28;20177;-82
2021/09/03 09:06:05;;;;;;;12.23;8.17;;;22.30;99.90;;;;;;5030845;28;20705;-82
2021/09/03 09:08:32;;;;;;;12.30;8.20;;;22.30;99.90;;;;;;5020900;28;20179;-82
2021/09/03 09:11:05;;;;;;;11.43;8.90;;;22.30;99.90;;;;;;5016536;28;20207;-82
2021/09/03 09:13:34;;;;;;;13.43;9.33;;;22.40;99.90;;;;;;5006630;28;20167;-82
2021/09/03 09:16:14;;;;;;;13.10;9.00;;;22.40;99.90;;;;;;5005998;28;20188;-82
2021/09/03 09:18:44;;;;;;;12.67;9.60;;;22.90;99.90;;;;;;5017830;28;20202;-82
2021/09/03 09:21:29;;;;;;;12.20;9.10;;;23.00;99.90;;;;;;5020585;28;20190;-82
2021/09/03 09:24:01;;;;;;;11.53;8.60;;;22.80;99.90;;;;;;5016290;28;20263;-82
2021/09/03 09:26:46;;;;;;;12.17;8.40;;;22.70;99.90;;;;;;4998946;28;20184;-82
2021/09/03 09:29:25;;;;;;;11.47;8.97;;;22.60;99.90;;;;;;5001092;28;20180;-83
2021/09/03 09:31:55;;;;;;;12.23;7.90;;;22.40;99.90;;;;;;5001532;28;20262;-82
2021/09/03 09:34:28;;;;;;;10.70;7.50;;;22.40;99.90;;;;;;5006767;28;20205;-82
2021/09/03 09:36:54;;;;;;;9.63;7.23;;;22.50;99.90;;;;;;5009837;28;20180;-82
2021/09/03 09:39:20;;;;;;;9.13;7.17;;;22.50;99.90;;;;;;5000010;28;20208;-82
2021/09/03 09:41:47;;;;;;;10.07;7.50;;;22.60;99.90;;;;;;4998969;28;20282;-82
2021/09/03 09:44:12;;;;;;;12.10;7.87;;;22.50;99.90;;;;;;5004976;28;20176;-82
2021/09/03 09:46:38;;;;;;;9.20;7.00;;;22.70;99.90;;;;;;5019088;28;20380;-82
2021/09/03 09:49:06;;;;;;;9.73;6.97;;;22.80;99.90;;;;;;5023141;28;20182;-82
2021/09/03 09:51:46;;;;;;;11.87;7.80;;;22.90;99.90;;;;;;5018570;28;20203;-82
2021/09/03 09:54:19;;;;;;;9.03;7.10;;;22.80;99.90;;;;;;5004020;28;20335;-82
2021/09/03 09:56:46;;;;;;;11.33;6.97;;;22.90;99.90;;;;;;5035719;28;20175;-82
2021/09/03 09:59:12;;;;;;;8.37;6.80;;;22.90;99.90;;;;;;5036202;28;20217;-82
2021/09/03 10:01:39;;;;;;;8.67;6.83;;;23.10;99.90;;;;;;5018441;28;20694;-83
2021/09/03 10:04:09;;;;;;;9.30;6.20;;;23.00;99.90;;;;;;5019014;28;20762;-82
2021/09/03 10:06:36;;;;;;;8.40;5.90;;;23.00;99.90;;;;;;5034644;28;20254;-82
2021/09/03 10:09:02;;;;;;;9.07;5.87;;;22.90;99.90;;;;;;5007918;28;20225;-82
2021/09/03 10:11:28;;;;;;;8.45;5.72;;;22.90;99.90;;;;;;5017067;28;20211;-82
2021/09/03 10:13:54;;;;;;;8.97;5.40;;;22.80;99.90;;;;;;4983686;28;20184;-82
2021/09/03 10:16:20;;;;;;;8.53;5.37;;;22.80;99.90;;;;;;4986285;28;20549;-82
2021/09/03 10:18:47;;;;;;;9.93;6.63;;;23.00;99.90;;;;;;5003310;28;20200;-82
2021/09/03 10:21:13;;;;;;;9.63;6.57;;;23.20;99.90;;;;;;4988074;28;20203;-82
2021/09/03 10:24:01;;;;;;;9.67;6.00;;;23.20;99.90;;;;;;4986893;28;20180;-82
2021/09/03 10:26:34;;;;;;;6.53;5.30;;;23.20;99.90;;;;;;5030939;28;20190;-82
2021/09/03 10:29:50;;;;;;;7.63;5.38;;;23.40;99.90;;;;;;5003287;28;20182;-82
2021/09/03 10:32:21;;;;;;;5.90;4.83;;;23.50;99.90;;;;;;4974727;28;20353;-82
2021/09/03 10:34:55;;;;;;;8.93;4.55;;;23.60;99.90;;;;;;4975187;28;20186;-82
2021/09/03 10:37:28;;;;;;;6.25;4.60;;;23.60;99.90;;;;;;4975460;28;20200;-82
2021/09/03 10:39:55;;;;;;;8.07;5.90;;;23.70;99.90;;;;;;5000692;28;20196;-82
2021/09/03 10:45:04;;;;;;;8.60;5.95;;;23.60;99.90;;;;;;5041644;28;20324;-82
2021/09/03 10:47:39;;;;;;;6.93;5.18;;;23.50;99.90;;;;;;5032609;28;20183;-82
2021/09/03 10:50:35;;;;;;;7.65;5.00;;;23.60;99.90;;;;;;5001898;28;20174;-82
2021/09/03 10:53:06;;;;;;;9.50;6.22;;;23.80;99.90;;;;;;5006617;28;20176;-82
2021/09/03 10:56:01;;;;;;;8.65;5.72;;;23.70;99.90;;;;;;5020380;28;20187;-82
2021/09/03 10:58:49;;;;;;;7.47;5.82;;;23.80;99.90;;;;;;5031339;28;20221;-82
2021/09/03 11:01:18;;;;;;;8.93;5.40;;;23.70;99.90;;;;;;5036212;28;20226;-82
2021/09/03 11:04:06;;;;;;;10.77;5.95;;;23.80;99.90;;;;;;5002645;28;20184;-82
2021/09/03 11:06:36;;;;;;;7.53;4.75;;;23.70;99.90;;;;;;5002039;28;20183;-82
2021/09/03 11:09:24;;;;;;;6.95;5.10;;;23.70;99.90;;;;;;4986043;28;20183;-82
2021/09/03 11:12:02;;;;;;;6.88;4.40;;;23.70;99.90;;;;;;4992677;28;20211;-82
2021/09/03 11:14:29;;;;;;;6.70;5.00;;;23.90;99.90;;;;;;5009689;28;20368;-82
2021/09/03 11:16:55;;;;;;;6.00;4.60;;;24.00;99.90;;;;;;5001964;28;20605;-82
2021/09/03 11:19:48;;;;;;;7.95;5.28;;;23.90;99.90;;;;;;5011731;28;20211;-82
2021/09/03 11:22:19;;;;;;;8.35;5.43;;;24.00;99.90;;;;;;4982170;28;20200;-82
2021/09/03 11:24:46;;;;;;;7.15;4.60;;;24.10;99.90;;;;;;4994527;28;20202;-82
2021/09/03 11:27:16;;;;;;;10.68;4.78;;;24.00;99.90;;;;;;5002617;28;20184;-82
2021/09/03 11:29:41;;;;;;;7.93;5.13;;;24.00;99.90;;;;;;5000945;28;20643;-82
2021/09/03 11:32:18;;;;;;;6.47;4.80;;;24.10;99.90;;;;;;5018529;28;20203;-83
2021/09/03 11:34:43;;;;;;;6.78;4.88;;;24.00;99.90;;;;;;4995790;28;20184;-82
2021/09/03 11:37:15;;;;;;;9.00;5.20;;;24.00;99.90;;;;;;4979380;28;20265;-83
2021/09/03 11:39:41;;;;;;;9.40;5.55;;;24.10;99.90;;;;;;4979560;28;20176;-80
2021/09/03 11:42:06;;;;;;;7.63;4.60;;;24.10;99.90;;;;;;4991299;28;20199;-81
2021/09/03 11:44:32;;;;;;;7.45;4.88;;;24.10;99.90;;;;;;5013859;28;20229;-79
2021/09/03 11:46:58;;;;;;;8.15;4.63;;;24.10;99.90;;;;;;5021122;28;20171;-80
2021/09/03 11:49:23;;;;;;;5.80;4.70;;;24.30;99.90;;;;;;4981849;28;20648;-81
2021/09/03 11:52:05;;;;;;;7.13;4.78;;;24.50;99.90;;;;;;4995828;28;20588;-82
2021/09/03 11:54:30;;;;;;;5.97;4.32;;;24.60;99.90;;;;;;5005349;28;20243;-81
2021/09/03 11:56:57;;;;;;;6.60;4.70;;;24.60;99.90;;;;;;4981004;28;20192;-80
2021/09/03 11:59:22;;;;;;;7.55;4.95;;;24.60;99.90;;;;;;4972144;28;20832;-80
2021/09/03 12:02:01;;;;;;;7.22;4.40;;;24.60;99.90;;;;;;5037572;28;20351;-80
2021/09/03 12:04:27;;;;;;;8.68;4.75;;;24.40;99.90;;;;;;5020340;28;20201;-80
2021/09/03 12:06:52;;;;;;;6.20;4.38;;;24.30;99.90;;;;;;5036722;28;20194;-79
2021/09/03 12:09:32;;;;;;;7.75;4.68;;;24.50;99.90;;;;;;5036804;28;20163;-79
2021/09/03 12:11:58;;;;;;;6.25;4.28;;;24.80;99.90;;;;;;5036659;28;20206;-80
2021/09/03 12:14:23;;;;;;;6.65;4.60;;;24.90;99.90;;;;;;5007959;28;20564;-80
2021/09/03 12:16:49;;;;;;;5.95;4.57;;;24.80;99.90;;;;;;5001961;28;20197;-82
2021/09/03 12:19:14;;;;;;;5.53;4.32;;;24.80;99.90;;;;;;5001709;28;20242;-80
2021/09/03 12:21:41;;;;;;;7.75;4.70;;;24.70;99.90;;;;;;5000701;28;20200;-80
2021/09/03 12:24:09;;;;;;;6.00;4.85;;;24.80;99.90;;;;;;4981271;28;20579;-79
2021/09/03 12:26:39;;;;;;;6.55;4.55;;;24.70;99.90;;;;;;5013508;28;20710;-80
2021/09/03 12:29:09;;;;;;;6.75;4.70;;;24.70;99.90;;;;;;4983946;28;20646;-79
2021/09/03 12:31:34;;;;;;;6.93;4.78;;;24.60;99.90;;;;;;4999757;28;20240;-79
2021/09/03 12:34:01;;;;;;;8.65;4.13;;;24.40;99.90;;;;;;5016178;28;20194;-80
2021/09/03 12:36:32;;;;;;;7.00;4.90;;;24.30;99.90;;;;;;4984764;28;20306;-80
2021/09/03 12:39:05;;;;;;;7.80;4.65;;;24.30;99.90;;;;;;4984408;28;20203;-80
2021/09/03 12:41:34;;;;;;;7.88;4.97;;;24.40;99.90;;;;;;5002522;28;20285;-80
2021/09/03 12:44:02;;;;;;;7.72;4.85;;;24.40;99.90;;;;;;5018538;28;20179;-80
2021/09/03 12:46:33;;;;;;;7.07;4.95;;;24.30;99.90;;;;;;5017127;28;20184;-80
2021/09/03 12:49:16;;;;;;;5.40;4.57;;;24.10;99.90;;;;;;4990303;28;20214;-80
2021/09/03 12:51:42;;;;;;;8.25;4.70;;;23.90;99.90;;;;;;4982205;28;20196;-80